Time;durP1;ratioP1;P1;durP2;ratioP2;P2;SDS_P1;SDS_P2;PMS_P1;PMS_P2;Temp;Humidity;BMP_temperature;BMP_pressure;BME280_temperature;BME280_humidity;BME280_pressure;Samples;Min_cycle;Max_cycle;Signal;HPM_P1;HPM_P2
2022/10/22 00:00:18;;;;;;;3.13;2.55;;;;;;;21.48;62.52;99107.19;2101696;28;20064;-45
2022/10/22 00:01:20;;;;;;;3.65;2.92;;;;;;;21.50;62.49;99104.25;2103555;28;20413;-48
2022/10/22 00:02:21;;;;;;;4.20;3.03;;;;;;;21.51;62.55;99095.13;2102998;28;20104;-45
2022/10/22 00:03:23;;;;;;;3.67;2.58;;;;;;;21.49;62.65;99095.34;2101664;28;20108;-49
2022/10/22 00:04:24;;;;;;;5.05;2.83;;;;;;;21.49;62.67;99098.03;2103319;28;20048;-44
2022/10/22 00:05:25;;;;;;;3.55;2.92;;;;;;;21.50;62.65;99088.88;2102358;28;20131;-46
2022/10/22 00:06:26;;;;;;;3.58;2.47;;;;;;;21.51;62.72;99095.13;2102873;28;20056;-44
2022/10/22 00:07:28;;;;;;;4.72;3.03;;;;;;;21.52;62.64;99091.38;2100779;28;20578;-49
2022/10/22 00:08:29;;;;;;;3.65;2.67;;;;;;;21.51;62.47;99089.75;2102425;28;20039;-44
2022/10/22 00:09:30;;;;;;;;;;;;;;;21.41;62.67;99092.84;2101214;28;20056;-45
2022/10/22 00:10:32;;;;;;;;;;;;;;;21.31;63.02;99106.75;2101443;28;19973;-45
2022/10/22 00:11:34;;;;;;;5.00;2.50;;;;;;;21.36;63.22;99114.22;2100948;28;20163;-46
2022/10/22 00:12:35;;;;;;;3.28;2.97;;;;;;;21.43;62.62;99115.06;2093849;28;20509;-44
2022/10/22 00:13:36;;;;;;;;;;;;;;;21.34;63.08;99105.50;2100537;28;20059;-44
2022/10/22 00:14:38;;;;;;;3.22;2.60;;;;;;;21.39;62.94;99089.53;2102398;28;19945;-47
2022/10/22 00:15:40;;;;;;;3.58;2.72;;;;;;;21.45;62.83;99095.97;2100114;28;20048;-44
2022/10/22 00:16:41;;;;;;;2.42;2.22;;;;;;;21.48;62.60;99091.00;2102304;28;20051;-45
2022/10/22 00:17:42;;;;;;;4.00;2.30;;;;;;;21.47;62.68;99088.47;2099135;28;20048;-50
2022/10/22 00:18:43;;;;;;;4.75;3.05;;;;;;;21.49;62.71;99084.53;2101245;28;20048;-46
2022/10/22 00:19:45;;;;;;;4.68;2.92;;;;;;;21.49;62.47;99081.84;2100657;28;20472;-44
2022/10/22 00:20:46;;;;;;;2.88;2.38;;;;;;;21.49;62.82;99089.13;2100745;28;20044;-44
2022/10/22 00:21:47;;;;;;;;;;;;;;;21.39;62.87;99078.75;2100495;28;20109;-47
2022/10/22 00:22:48;;;;;;;3.72;3.20;;;;;;;21.44;62.81;99087.03;2100195;28;19928;-46
2022/10/22 00:23:49;;;;;;;;;;;;;;;21.34;62.88;99086.59;2099453;28;20117;-48
2022/10/22 00:24:50;;;;;;;;;;;;;;;21.29;63.18;99089.13;2101229;28;19919;-44
2022/10/22 00:25:54;;;;;;;4.90;3.22;;;;;;;21.35;62.78;99077.50;2102834;28;19924;-46
2022/10/22 00:26:55;;;;;;;3.88;2.85;;;;;;;21.41;62.79;99080.19;2100198;28;20083;-45
2022/10/22 00:27:57;;;;;;;4.88;3.20;;;;;;;21.44;62.95;99068.16;2101694;28;20592;-46
2022/10/22 00:28:58;;;;;;;5.57;2.90;;;;;;;21.48;62.42;99073.94;2102640;28;20052;-46
2022/10/22 00:29:59;;;;;;;4.05;2.65;;;;;;;21.48;62.62;99068.53;2101912;28;20052;-44
2022/10/22 00:31:00;;;;;;;6.57;3.05;;;;;;;21.48;62.67;99077.50;2102903;28;20473;-44
2022/10/22 00:32:03;;;;;;;;;;;;;;;21.37;62.81;99080.84;2101450;28;20059;-45
2022/10/22 00:33:03;;;;;;;3.17;2.65;;;;;;;21.41;62.81;99088.28;2102328;28;19931;-46
2022/10/22 00:34:05;;;;;;;3.25;2.67;;;;;;;21.46;62.67;99084.97;2102762;28;20504;-45
2022/10/22 00:35:06;;;;;;;3.70;2.80;;;;;;;21.46;62.75;99087.66;2098964;28;20055;-44
2022/10/22 00:36:09;;;;;;;3.22;2.70;;;;;;;21.47;62.76;99088.47;2100365;28;20062;-45
2022/10/22 00:37:09;;;;;;;3.60;2.67;;;;;;;21.49;62.43;99086.41;2100924;28;20940;-46
2022/10/22 00:38:11;;;;;;;;;;;;;;;21.38;62.65;99085.19;2101761;28;20048;-47
2022/10/22 00:39:15;;;;;;;3.15;2.78;;;;;;;21.42;62.68;99075.63;2101672;28;19924;-45
2022/10/22 00:40:16;;;;;;;5.60;2.80;;;;;;;21.44;62.44;99078.94;2101809;28;20046;-47
2022/10/22 00:41:19;;;;;;;3.25;2.58;;;;;;;21.45;62.78;99075.19;2101198;28;20062;-46
2022/10/22 00:42:23;;;;;;;5.18;3.22;;;;;;;21.49;62.54;99078.31;2100363;28;20048;-45
2022/10/22 00:43:26;;;;;;;4.55;2.90;;;;;;;21.47;62.42;99069.59;2102842;28;20048;-45
2022/10/22 00:45:07;;;;;;;3.97;3.10;;;;;;;21.45;62.72;99069.78;2101552;28;20409;-45
2022/10/22 00:46:07;;;;;;;3.78;2.13;;;;;;;21.41;62.62;99066.69;2096308;28;20844;-46
2022/10/22 00:47:09;;;;;;;2.78;2.42;;;;;;;21.44;62.95;99061.94;2099604;28;20094;-48
2022/10/22 00:48:15;;;;;;;3.00;2.42;;;;;;;21.47;62.69;99065.03;2100326;28;20085;-46
2022/10/22 00:49:15;;;;;;;3.95;2.95;;;;;;;21.47;62.48;99062.31;2101314;28;20048;-46
2022/10/22 00:50:21;;;;;;;5.15;3.25;;;;;;;21.47;62.55;99062.31;2099713;28;20048;-45
2022/10/22 00:51:28;;;;;;;3.55;2.90;;;;;;;21.48;62.45;99066.69;2099592;28;20466;-44
2022/10/22 00:52:29;;;;;;;3.33;2.72;;;;;;;21.48;62.54;99063.16;2104059;28;20040;-44
2022/10/22 00:53:34;;;;;;;3.28;2.97;;;;;;;21.49;62.60;99068.34;2101177;28;20476;-44
2022/10/22 00:54:36;;;;;;;3.33;2.80;;;;;;;21.50;62.28;99063.78;2102333;28;20047;-47
2022/10/22 00:55:39;;;;;;;4.88;2.63;;;;;;;21.49;62.52;99068.34;2098930;28;20583;-48
2022/10/22 00:56:42;;;;;;;2.80;2.55;;;;;;;21.49;62.66;99068.34;2100415;28;20048;-45
2022/10/22 00:57:44;;;;;;;2.33;2.13;;;;;;;21.49;62.46;99064.81;2099524;28;20073;-46
2022/10/22 00:58:49;;;;;;;3.15;2.55;;;;;;;21.49;62.47;99073.75;2103062;28;20040;-44
2022/10/22 00:59:50;;;;;;;4.28;2.65;;;;;;;21.48;62.37;99069.41;2100245;28;20052;-45
2022/10/22 01:00:52;;;;;;;3.50;2.33;;;;;;;21.49;62.62;99075.63;2103311;28;20052;-45
2022/10/22 01:01:54;;;;;;;5.07;2.80;;;;;;;21.49;62.38;99081.84;2101568;28;20056;-45
2022/10/22 01:02:56;;;;;;;4.80;2.67;;;;;;;21.50;62.42;99077.25;2100913;28;20508;-45
2022/10/22 01:03:58;;;;;;;4.32;3.65;;;;;;;21.49;62.44;99081.84;2100786;28;20044;-45
2022/10/22 01:04:59;;;;;;;3.70;2.83;;;;;;;21.50;62.71;99086.19;2100592;28;20055;-45
2022/10/22 01:06:02;;;;;;;;;;;;;;;21.38;62.83;99088.72;2100720;28;20052;-45
2022/10/22 01:07:03;;;;;;;3.13;2.60;;;;;;;21.44;62.79;99097.00;2097562;28;19925;-46
2022/10/22 01:08:09;;;;;;;3.47;2.50;;;;;;;21.46;62.71;99095.75;2096654;28;20127;-45
2022/10/22 01:09:21;;;;;;;3.92;2.72;;;;;;;21.46;62.59;99087.66;2102779;28;20394;-44
2022/10/22 01:10:41;;;;;;;2.92;2.55;;;;;;;21.46;62.54;99084.97;2101962;28;20056;-45
2022/10/22 01:11:54;;;;;;;3.55;2.95;;;;;;;21.45;62.47;99083.28;2101326;28;20047;-48
2022/10/22 01:13:05;;;;;;;2.88;2.25;;;;;;;21.46;62.37;99078.75;2099213;28;20087;-46
2022/10/22 01:14:17;;;;;;;3.50;2.35;;;;;;;21.46;62.60;99087.66;2102413;28;20097;-45
2022/10/22 01:15:24;;;;;;;2.85;2.60;;;;;;;21.45;62.45;99090.56;2099571;28;20048;-44
2022/10/22 01:16:35;;;;;;;3.08;2.72;;;;;;;21.45;62.53;99079.75;2099129;28;20051;-45
2022/10/22 01:17:40;;;;;;;;;;;;;;;21.33;62.92;99080.38;2100642;28;20120;-45
2022/10/22 01:18:51;;;;;;;3.45;2.40;;;;;;;21.39;62.71;99089.53;2102529;28;20013;-45
2022/10/22 01:20:02;;;;;;;;;;;;;;;21.29;62.89;99087.25;2100784;28;20051;-45
2022/10/22 01:21:14;;;;;;;3.17;2.83;;;;;;;21.36;63.02;99081.84;2101801;28;19920;-45
2022/10/22 01:22:21;;;;;;;3.78;2.22;;;;;;;21.41;62.76;99087.47;2101864;28;20752;-45
2022/10/22 01:23:42;;;;;;;2.80;2.35;;;;;;;21.39;62.69;99082.25;2102591;28;20704;-45
2022/10/22 01:24:49;;;;;;;;;;;;;;;21.30;62.79;99078.09;2101498;28;20052;-44
2022/10/22 01:25:58;;;;;;;2.95;2.67;;;;;;;21.35;62.80;99081.00;2100185;28;19932;-44
2022/10/22 01:27:24;;;;;;;4.22;2.85;;;;;;;21.37;62.84;99083.53;2102412;28;20052;-46
2022/10/22 01:28:37;;;;;;;2.47;2.28;;;;;;;21.39;62.79;99076.03;2101887;28;20044;-45
2022/10/22 01:29:43;;;;;;;4.50;2.92;;;;;;;21.42;62.42;99064.81;2099993;28;20407;-45
2022/10/22 01:30:48;;;;;;;3.53;2.80;;;;;;;21.43;62.78;99063.81;2100632;28;20048;-45
2022/10/22 01:31:55;;;;;;;3.38;2.55;;;;;;;21.42;62.42;99060.28;2098423;28;20052;-47
2022/10/22 01:33:00;;;;;;;2.80;2.60;;;;;;;21.43;62.45;99061.09;2098434;28;20051;-45
2022/10/22 01:34:03;;;;;;;3.08;2.65;;;;;;;21.45;62.45;99058.19;2098988;28;20051;-46
2022/10/22 01:35:08;;;;;;;3.97;2.63;;;;;;;21.45;62.52;99052.78;2101655;28;20040;-45
2022/10/22 01:36:11;;;;;;;2.78;2.58;;;;;;;21.43;62.64;99044.91;2095910;28;20086;-45
2022/10/22 01:37:14;;;;;;;4.75;3.25;;;;;;;21.43;62.49;99044.91;2100670;28;20055;-46
2022/10/22 01:38:20;;;;;;;5.78;3.10;;;;;;;21.44;62.29;99027.66;2100975;28;20071;-45
2022/10/22 01:39:22;;;;;;;4.97;2.47;;;;;;;21.44;62.63;99022.28;2098552;28;20051;-44
2022/10/22 01:40:25;;;;;;;6.05;2.55;;;;;;;21.44;62.49;99008.78;2097659;28;20055;-45
2022/10/22 01:41:27;;;;;;;2.40;2.20;;;;;;;21.44;62.49;99000.69;2098051;28;20047;-44
2022/10/22 01:42:29;;;;;;;4.68;2.72;;;;;;;21.45;62.48;98996.94;2096635;28;20101;-44
2022/10/22 01:43:30;;;;;;;3.75;2.80;;;;;;;21.44;62.77;98992.59;2095775;28;20059;-44
2022/10/22 01:44:34;;;;;;;;;;;;;;;21.32;62.66;98983.47;2096311;28;21036;-44
2022/10/22 01:45:38;;;;;;;3.20;2.40;;;;;;;21.36;62.82;98980.13;2096763;28;20255;-45
2022/10/22 01:46:40;;;;;;;3.22;2.63;;;;;;;21.39;62.69;98979.72;2095714;28;20163;-44
2022/10/22 01:47:55;;;;;;;4.90;2.70;;;;;;;21.41;62.61;98982.22;2097088;28;20048;-44
2022/10/22 01:49:15;;;;;;;4.10;2.97;;;;;;;21.40;62.66;98988.69;2098196;28;20565;-45
2022/10/22 01:50:40;;;;;;;3.83;2.50;;;;;;;21.38;62.50;98988.06;2097737;28;20040;-45
2022/10/22 01:51:57;;;;;;;3.95;2.45;;;;;;;21.39;62.54;98987.00;2093771;28;20422;-46
2022/10/22 01:53:13;;;;;;;3.47;2.67;;;;;;;21.39;62.76;98978.91;2096403;28;20062;-45
2022/10/22 01:54:25;;;;;;;3.08;2.28;;;;;;;21.42;62.75;98978.47;2097379;28;20059;-45
2022/10/22 01:55:36;;;;;;;5.15;2.83;;;;;;;21.43;62.53;98974.75;2097947;28;20592;-45
2022/10/22 01:56:52;;;;;;;4.63;3.17;;;;;;;21.42;62.75;98978.47;2097676;28;20089;-47
2022/10/22 01:58:04;;;;;;;4.05;2.60;;;;;;;21.42;62.73;98967.69;2097758;28;20548;-45
2022/10/22 01:59:14;;;;;;;2.85;2.55;;;;;;;21.43;62.54;98963.97;2097394;28;20049;-46
2022/10/22 02:00:18;;;;;;;2.35;1.92;;;;;;;21.44;62.57;98964.78;2097679;28;20064;-46
2022/10/22 02:01:26;;;;;;;2.75;2.33;;;;;;;21.43;62.64;98966.66;2099772;28;21876;-44
2022/10/22 02:02:34;;;;;;;4.20;2.58;;;;;;;21.44;62.52;98971.00;2094207;28;20159;-46
2022/10/22 02:03:40;;;;;;;3.42;2.83;;;;;;;21.44;62.58;98965.59;2096902;28;20555;-45
2022/10/22 02:04:48;;;;;;;3.63;2.63;;;;;;;21.45;62.30;98964.56;2099137;28;20535;-44
2022/10/22 02:05:54;;;;;;;3.17;2.53;;;;;;;21.45;62.37;98967.25;2096542;28;20044;-44
2022/10/22 02:07:01;;;;;;;4.15;2.97;;;;;;;21.45;62.62;98971.81;2097771;28;20135;-46
2022/10/22 02:08:05;;;;;;;4.05;2.78;;;;;;;21.44;62.44;98965.59;2100024;28;20059;-46
2022/10/22 02:09:09;;;;;;;4.03;3.03;;;;;;;21.44;62.47;98960.22;2096978;28;20535;-48
2022/10/22 02:10:11;;;;;;;3.30;2.92;;;;;;;21.45;62.65;98964.56;2096747;28;20048;-45
2022/10/22 02:11:14;;;;;;;3.85;2.55;;;;;;;21.46;62.50;98968.09;2098047;28;20773;-45
2022/10/22 02:12:19;;;;;;;3.33;3.00;;;;;;;21.47;62.38;98969.75;2096806;28;20092;-45
2022/10/22 02:13:25;;;;;;;4.03;2.58;;;;;;;21.44;62.41;98971.00;2098486;28;20207;-46
2022/10/22 02:14:28;;;;;;;3.00;2.58;;;;;;;21.45;62.63;98972.66;2100293;28;20051;-44
2022/10/22 02:15:35;;;;;;;2.97;2.35;;;;;;;21.44;62.32;98976.41;2097558;28;20044;-44
2022/10/22 02:16:40;;;;;;;3.30;2.22;;;;;;;21.44;62.38;98979.09;2097664;28;20660;-45
2022/10/22 02:17:45;;;;;;;3.47;2.35;;;;;;;21.43;62.53;98985.53;2088659;28;20044;-47
2022/10/22 02:18:48;;;;;;;3.63;2.42;;;;;;;21.46;62.22;98982.41;2098966;28;20476;-44
2022/10/22 02:19:54;;;;;;;3.20;2.33;;;;;;;21.45;62.70;98986.13;2095998;28;20056;-44
2022/10/22 02:20:57;;;;;;;3.33;2.75;;;;;;;21.46;62.33;98990.50;2098617;28;20148;-48
2022/10/22 02:22:00;;;;;;;3.95;2.72;;;;;;;21.46;62.49;98982.41;2095714;28;20061;-45
2022/10/22 02:23:01;;;;;;;3.17;2.40;;;;;;;21.46;62.66;98985.13;2100583;28;20062;-45
2022/10/22 02:24:04;;;;;;;3.38;2.30;;;;;;;21.47;62.50;98994.84;2096863;28;22149;-45
2022/10/22 02:25:06;;;;;;;3.47;2.22;;;;;;;21.46;62.28;98995.91;2098518;28;20050;-46
2022/10/22 02:26:16;;;;;;;2.67;2.47;;;;;;;21.46;62.27;98998.59;2097138;28;20059;-44
2022/10/22 02:27:22;;;;;;;3.40;3.10;;;;;;;21.45;62.47;99007.72;2098463;28;21092;-45
2022/10/22 02:28:28;;;;;;;2.55;2.13;;;;;;;21.45;62.67;98999.63;2095852;28;20090;-45
2022/10/22 02:29:35;;;;;;;3.47;2.90;;;;;;;21.46;62.62;99009.41;2096349;28;20085;-44
2022/10/22 02:30:42;;;;;;;5.97;3.40;;;;;;;21.45;62.28;99002.31;2098146;28;20561;-45
2022/10/22 02:31:47;;;;;;;4.40;2.80;;;;;;;21.45;62.53;99004.22;2095768;28;20048;-45
2022/10/22 02:32:52;;;;;;;3.42;2.45;;;;;;;21.46;62.43;98997.78;2098909;28;22086;-45
2022/10/22 02:33:56;;;;;;;3.90;2.80;;;;;;;21.45;62.53;98996.09;2097975;28;20494;-46
2022/10/22 02:35:00;;;;;;;4.60;3.15;;;;;;;21.44;62.53;98992.59;2097185;28;21353;-46
2022/10/22 02:36:01;;;;;;;3.33;2.95;;;;;;;21.44;62.48;98987.19;2095125;28;20063;-47
2022/10/22 02:37:04;;;;;;;4.15;2.50;;;;;;;21.46;62.42;98985.13;2097664;28;20091;-45
2022/10/22 02:38:06;;;;;;;2.42;2.15;;;;;;;21.44;62.67;98981.78;2096509;28;20055;-45
2022/10/22 02:39:09;;;;;;;3.00;2.30;;;;;;;21.45;62.32;98974.53;2098626;28;20079;-45
2022/10/22 02:40:11;;;;;;;3.17;2.65;;;;;;;21.46;62.48;98978.91;2097913;28;20093;-44
2022/10/22 02:41:14;;;;;;;3.20;2.33;;;;;;;21.46;62.39;98971.63;2099291;28;20048;-45
2022/10/22 02:42:17;;;;;;;2.72;2.30;;;;;;;21.45;62.71;98971.81;2097124;28;20108;-45
2022/10/22 02:43:19;;;;;;;2.90;2.70;;;;;;;21.44;62.21;98973.69;2096884;28;22150;-45
2022/10/22 02:44:21;;;;;;;2.78;2.58;;;;;;;21.45;62.46;98975.34;2098200;28;20059;-44
2022/10/22 02:45:23;;;;;;;2.95;2.65;;;;;;;21.44;62.56;98973.69;2096825;28;20059;-45
2022/10/22 02:46:25;;;;;;;3.50;2.90;;;;;;;21.45;62.51;98967.25;2095846;28;21296;-46
2022/10/22 02:47:27;;;;;;;6.03;2.88;;;;;;;21.46;62.46;98966.22;2097300;28;23681;-45
2022/10/22 02:48:28;;;;;;;3.22;2.13;;;;;;;21.47;62.47;98961.66;2096420;28;20048;-44
2022/10/22 02:49:30;;;;;;;3.95;2.45;;;;;;;21.46;62.47;98958.13;2096526;28;20193;-44
2022/10/22 02:50:31;;;;;;;4.70;3.10;;;;;;;21.46;62.36;98963.53;2098640;28;20044;-44
2022/10/22 02:51:32;;;;;;;;;;;;;;;21.35;62.92;98974.97;2099675;28;20040;-45
2022/10/22 02:52:33;;;;;;;4.13;2.95;;;;;;;21.37;62.80;98976.44;2097278;28;19924;-45
2022/10/22 02:53:35;;;;;;;;;;;;;;;21.30;62.84;98974.75;2099607;28;20101;-44
2022/10/22 02:54:36;;;;;;;2.95;2.42;;;;;;;21.35;62.73;98972.25;2098640;28;20512;-44
2022/10/22 02:55:37;;;;;;;4.47;2.97;;;;;;;21.38;62.54;98971.84;2097590;28;20043;-45
2022/10/22 02:56:38;;;;;;;3.13;2.85;;;;;;;21.40;62.53;98969.78;2096516;28;20044;-44
2022/10/22 02:57:40;;;;;;;;;;;;;;;21.32;62.91;98975.38;2097349;28;20547;-45
2022/10/22 02:58:40;;;;;;;3.45;2.33;;;;;;;21.35;62.73;98978.47;2100417;28;19924;-43
2022/10/22 02:59:42;;;;;;;;;;;;;;;21.29;62.88;98973.94;2101388;28;20051;-49
2022/10/22 03:00:43;;;;;;;5.15;2.28;;;;;;;21.34;62.50;98968.75;2101024;28;20038;-43
2022/10/22 03:01:46;;;;;;;;;;;;;;;21.26;62.96;98968.97;2102901;28;20763;-45
2022/10/22 03:02:47;;;;;;;4.40;2.38;;;;;;;21.32;62.87;98967.28;2096086;28;19924;-45
2022/10/22 03:03:47;;;;;;;3.22;2.92;;;;;;;21.35;62.73;98973.09;2101393;28;20125;-44
2022/10/22 03:04:49;;;;;;;;;;;;;;;21.29;62.68;98973.13;2099966;28;20167;-44
2022/10/22 03:05:50;;;;;;;;;;;;;;;21.23;62.94;98979.34;2101068;28;20453;-44
2022/10/22 03:06:52;;;;;;;2.88;2.47;;;;;;;21.29;62.78;98984.72;2101874;28;19924;-44
2022/10/22 03:07:52;;;;;;;2.40;2.20;;;;;;;21.34;62.88;98984.94;2100023;28;20048;-44
2022/10/22 03:08:54;;;;;;;;;;;;;;;21.28;62.83;98988.44;2097093;28;20055;-44
2022/10/22 03:09:55;;;;;;;3.08;2.55;;;;;;;21.32;62.77;98988.88;2100078;28;21094;-46
2022/10/22 03:10:56;;;;;;;;;;;;;;;21.25;62.99;98988.88;2100624;28;20060;-44
2022/10/22 03:11:57;;;;;;;;;;;;;;;21.22;63.22;98988.47;2099388;28;20327;-45
2022/10/22 03:12:58;;;;;;;3.47;2.43;;;;;;;21.28;62.91;98982.22;2093498;28;19932;-45
2022/10/22 03:13:59;;;;;;;3.08;2.75;;;;;;;21.34;62.68;98986.78;2101178;28;20742;-44
2022/10/22 03:15:01;;;;;;;2.72;2.40;;;;;;;21.37;62.53;98981.00;2100629;28;20052;-45
2022/10/22 03:16:02;;;;;;;4.28;2.60;;;;;;;21.38;62.48;98982.66;2103000;28;20059;-44
2022/10/22 03:17:05;;;;;;;2.95;2.47;;;;;;;21.39;62.46;98978.91;2102960;28;20081;-44
2022/10/22 03:18:06;;;;;;;3.67;2.97;;;;;;;21.38;62.53;98988.06;2097234;28;20053;-43
2022/10/22 03:19:08;;;;;;;;;;;;;;;21.31;63.07;98979.09;2102208;28;20119;-45
2022/10/22 03:20:08;;;;;;;;;;;;;;;21.23;63.08;98979.34;2101705;28;20425;-45
2022/10/22 03:21:18;;;;;;;3.45;2.42;;;;;;;21.29;63.05;98973.13;2099809;28;19924;-45
2022/10/22 03:22:23;;;;;;;4.25;2.47;;;;;;;21.33;62.68;98977.84;2102656;28;20093;-44
2022/10/22 03:23:24;;;;;;;3.65;2.88;;;;;;;21.35;62.73;98977.66;2101026;28;20643;-46
2022/10/22 03:24:29;;;;;;;3.45;2.53;;;;;;;21.37;62.78;98983.72;2097665;28;20044;-45
2022/10/22 03:25:33;;;;;;;3.67;2.22;;;;;;;21.39;62.80;98984.28;2097608;28;20048;-44
2022/10/22 03:26:35;;;;;;;4.32;2.83;;;;;;;21.39;62.74;98973.50;2101797;28;20094;-45
2022/10/22 03:27:39;;;;;;;6.32;2.60;;;;;;;21.38;62.69;98980.78;2102688;28;20048;-44
2022/10/22 03:28:42;;;;;;;3.75;2.47;;;;;;;21.40;62.31;98980.59;2100218;28;20051;-48
2022/10/22 03:29:43;;;;;;;4.93;2.67;;;;;;;21.42;62.33;98979.31;2099701;28;20053;-47
2022/10/22 03:30:45;;;;;;;2.67;2.08;;;;;;;21.41;62.59;98979.53;2101000;28;20062;-46
2022/10/22 03:31:46;;;;;;;3.85;2.63;;;;;;;21.42;62.37;98975.78;2101177;28;20048;-46
2022/10/22 03:32:49;;;;;;;2.90;2.30;;;;;;;21.41;62.41;98972.25;2095920;28;20252;-45
2022/10/22 03:33:50;;;;;;;3.92;2.45;;;;;;;21.42;62.48;98978.47;2098213;28;20544;-44
2022/10/22 03:34:52;;;;;;;4.55;2.45;;;;;;;21.43;62.62;98977.44;2101128;28;20082;-45
2022/10/22 03:35:52;;;;;;;5.85;2.33;;;;;;;21.43;62.31;98972.06;2098985;28;20051;-44
2022/10/22 03:36:55;;;;;;;;;;;;;;;21.33;62.78;98969.75;2099059;28;21467;-45
2022/10/22 03:37:58;;;;;;;3.65;2.58;;;;;;;21.35;62.86;98961.47;2096195;28;19935;-44
2022/10/22 03:39:01;;;;;;;3.28;2.40;;;;;;;21.37;62.73;98965.66;2099519;28;20136;-45
2022/10/22 03:40:03;;;;;;;2.55;2.08;;;;;;;21.39;62.77;98962.72;2092269;28;20064;-44
2022/10/22 03:41:06;;;;;;;4.93;3.42;;;;;;;21.41;62.63;98963.34;2094271;28;20892;-44
2022/10/22 03:42:07;;;;;;;2.70;2.33;;;;;;;21.41;62.44;98955.25;2099738;28;20058;-45
2022/10/22 03:43:09;;;;;;;2.80;2.00;;;;;;;21.41;62.49;98958.75;2103317;28;20047;-44
2022/10/22 03:44:11;;;;;;;3.55;2.83;;;;;;;21.42;62.59;98948.78;2100843;28;20410;-45
2022/10/22 03:45:13;;;;;;;3.35;2.83;;;;;;;21.40;62.48;98942.81;2098509;28;20051;-46
2022/10/22 03:46:13;;;;;;;3.47;3.15;;;;;;;21.42;62.55;98954.19;2098292;28;20070;-44
2022/10/22 03:47:15;;;;;;;;;;;;;;;21.33;62.56;98953.56;2101092;28;20055;-45
2022/10/22 03:48:17;;;;;;;2.55;2.10;;;;;;;21.34;63.00;98944.47;2101140;28;19931;-45
2022/10/22 03:49:19;;;;;;;2.50;1.83;;;;;;;21.37;62.89;98949.44;2101076;28;20127;-45
2022/10/22 03:50:20;;;;;;;5.68;2.75;;;;;;;21.41;62.41;98944.44;2098724;28;20079;-45
2022/10/22 03:51:21;;;;;;;;;;;;;;;21.32;62.92;98945.72;2101365;28;20044;-44
2022/10/22 03:52:22;;;;;;;4.03;2.22;;;;;;;21.35;62.93;98945.28;2099969;28;19927;-45
2022/10/22 03:53:24;;;;;;;3.33;2.40;;;;;;;21.36;62.71;98949.63;2100139;28;20143;-45
2022/10/22 03:54:25;;;;;;;4.25;2.53;;;;;;;21.38;62.91;98953.78;2097384;28;20070;-45
2022/10/22 03:55:26;;;;;;;;;;;;;;;21.31;62.87;98952.13;2099103;28;20044;-45
2022/10/22 03:56:27;;;;;;;3.30;2.88;;;;;;;21.33;62.72;98942.78;2098455;28;20398;-45
2022/10/22 03:57:29;;;;;;;;;;;;;;;21.27;62.83;98948.22;2100536;28;20101;-45
2022/10/22 03:58:29;;;;;;;;;;;;;;;21.22;63.18;98945.31;2098250;28;20293;-44
2022/10/22 03:59:34;;;;;;;2.33;2.13;;;;;;;21.28;63.02;98944.47;2099587;28;19926;-44
2022/10/22 04:00:35;;;;;;;5.78;2.50;;;;;;;21.33;62.84;98944.66;2095195;28;20690;-45
2022/10/22 04:01:37;;;;;;;;;;;;;;;21.25;62.81;98929.53;2103201;28;20044;-45
2022/10/22 04:02:38;;;;;;;2.80;2.35;;;;;;;21.31;63.01;98928.69;2099999;28;19928;-45
2022/10/22 04:03:41;;;;;;;;;;;;;;;21.25;62.98;98928.72;2102726;28;20040;-44
2022/10/22 04:04:41;;;;;;;3.55;2.83;;;;;;;21.30;62.77;98923.50;2101159;28;20320;-46
2022/10/22 04:05:43;;;;;;;;;;;;;;;21.26;63.04;98925.00;2101358;28;20056;-45
2022/10/22 04:06:44;;;;;;;2.95;2.22;;;;;;;21.30;62.75;98924.31;2095653;28;20881;-45
2022/10/22 04:07:45;;;;;;;;;;;;;;;21.24;63.10;98916.28;2096177;28;20134;-44
2022/10/22 04:08:46;;;;;;;4.20;2.63;;;;;;;21.29;62.68;98911.06;2103354;28;19924;-45
2022/10/22 04:09:48;;;;;;;3.97;2.53;;;;;;;21.32;62.75;98908.75;2097903;28;20044;-44
2022/10/22 04:10:51;;;;;;;2.88;2.17;;;;;;;21.36;62.85;98914.53;2096120;28;20056;-45
2022/10/22 04:11:52;;;;;;;3.83;2.35;;;;;;;21.38;62.73;98912.50;2097969;28;20040;-44
2022/10/22 04:12:53;;;;;;;2.75;2.47;;;;;;;21.38;62.72;98902.53;2099331;28;20048;-45
2022/10/22 04:13:55;;;;;;;;;;;;;;;21.30;62.89;98910.84;2101679;28;20559;-45
2022/10/22 04:14:55;;;;;;;;;;;;;;;21.23;63.08;98909.19;2101886;28;20433;-44
2022/10/22 04:16:07;;;;;;;3.73;2.17;;;;;;;21.28;62.91;98901.31;2097154;28;19970;-45
2022/10/22 04:17:07;;;;;;;4.68;2.70;;;;;;;21.32;62.76;98902.53;2101976;28;20058;-45
2022/10/22 04:18:09;;;;;;;2.63;2.42;;;;;;;21.34;62.81;98901.28;2098812;28;20133;-44
2022/10/22 04:19:12;;;;;;;6.50;3.50;;;;;;;21.38;62.78;98907.09;2098443;28;20097;-45
2022/10/22 04:20:14;;;;;;;3.85;2.28;;;;;;;21.38;62.94;98904.41;2098874;28;20169;-44
2022/10/22 04:21:18;;;;;;;2.92;2.38;;;;;;;21.40;62.66;98907.72;2102763;28;20059;-45
2022/10/22 04:22:19;;;;;;;4.80;3.33;;;;;;;21.38;62.75;98901.72;2097999;28;20099;-45
2022/10/22 04:23:21;;;;;;;3.38;2.78;;;;;;;21.38;62.56;98902.53;2101396;28;20055;-45
2022/10/22 04:24:22;;;;;;;4.20;2.10;;;;;;;21.40;62.73;98895.06;2101440;28;20059;-46
2022/10/22 04:25:23;;;;;;;3.90;2.75;;;;;;;21.41;62.33;98906.66;2100622;28;20055;-45
2022/10/22 04:26:25;;;;;;;;;;;;;;;21.30;62.60;98902.75;2095110;28;20472;-45
2022/10/22 04:27:29;;;;;;;2.97;2.15;;;;;;;21.34;62.68;98905.84;2099373;28;19963;-46
2022/10/22 04:28:30;;;;;;;3.92;2.28;;;;;;;21.37;62.81;98910.84;2097158;28;20056;-45
2022/10/22 04:29:31;;;;;;;2.38;2.17;;;;;;;21.39;62.78;98908.75;2102624;28;20073;-45
2022/10/22 04:30:33;;;;;;;4.38;2.50;;;;;;;21.39;62.46;98908.75;2097813;28;20125;-45
2022/10/22 04:31:34;;;;;;;3.65;2.15;;;;;;;21.40;62.58;98915.81;2101268;28;20413;-43
2022/10/22 04:32:36;;;;;;;3.42;2.58;;;;;;;21.42;62.33;98919.09;2101375;28;20052;-44
2022/10/22 04:33:37;;;;;;;2.22;2.03;;;;;;;21.41;62.65;98915.59;2098755;28;20059;-43
2022/10/22 04:34:40;;;;;;;3.22;2.75;;;;;;;21.42;62.58;98919.09;2097359;28;20476;-44
2022/10/22 04:35:41;;;;;;;6.25;3.20;;;;;;;21.41;62.31;98922.84;2098705;28;20105;-45
2022/10/22 04:36:42;;;;;;;;;;;;;;;21.32;62.76;98918.72;2098305;28;20132;-47
2022/10/22 04:37:43;;;;;;;2.95;2.05;;;;;;;21.33;62.89;98920.38;2098234;28;19920;-43
2022/10/22 04:38:46;;;;;;;3.25;2.72;;;;;;;21.36;62.55;98914.53;2097695;28;20075;-45
2022/10/22 04:39:47;;;;;;;3.10;2.38;;;;;;;21.37;62.81;98914.38;2098529;28;20570;-44
2022/10/22 04:40:49;;;;;;;4.35;2.55;;;;;;;21.37;62.71;98917.06;2098565;28;20082;-45
2022/10/22 04:41:50;;;;;;;5.32;2.70;;;;;;;21.39;62.42;98916.84;2099331;28;20071;-44
2022/10/22 04:42:52;;;;;;;3.65;2.05;;;;;;;21.40;62.52;98915.81;2095821;28;20048;-45
2022/10/22 04:43:54;;;;;;;4.47;2.40;;;;;;;21.40;62.39;98918.53;2097702;28;20085;-45
2022/10/22 04:44:56;;;;;;;2.95;2.35;;;;;;;21.42;62.52;98921.81;2100866;28;20765;-44
2022/10/22 04:45:59;;;;;;;5.88;2.75;;;;;;;21.43;62.48;98928.88;2097180;28;20048;-44
2022/10/22 04:47:01;;;;;;;3.83;2.75;;;;;;;21.41;62.67;98933.66;2096843;28;20058;-45
2022/10/22 04:48:02;;;;;;;2.65;2.42;;;;;;;21.42;62.63;98919.09;2098194;28;20056;-44
2022/10/22 04:49:04;;;;;;;3.03;2.38;;;;;;;21.40;62.74;98937.41;2099303;28;20185;-45
2022/10/22 04:50:07;;;;;;;5.43;2.55;;;;;;;21.41;62.74;98936.34;2098052;28;20635;-44
2022/10/22 04:51:12;;;;;;;5.35;2.75;;;;;;;21.42;62.63;98941.53;2097498;28;20135;-44
2022/10/22 04:52:13;;;;;;;4.00;2.80;;;;;;;21.41;62.71;98928.25;2096590;28;20096;-45
2022/10/22 04:53:15;;;;;;;3.33;2.28;;;;;;;21.39;62.52;98933.03;2098607;28;20044;-44
2022/10/22 04:54:16;;;;;;;4.18;2.30;;;;;;;21.41;62.68;98928.25;2097458;28;20048;-46
2022/10/22 04:55:17;;;;;;;;;;;;;;;21.30;63.05;98926.19;2098645;28;20056;-44
2022/10/22 04:56:19;;;;;;;;;;;;;;;21.22;63.04;98919.16;2099051;28;20484;-45
2022/10/22 04:57:21;;;;;;;5.13;2.65;;;;;;;21.29;63.02;98919.16;2099196;28;19924;-45
2022/10/22 04:58:22;;;;;;;5.38;2.55;;;;;;;21.31;62.76;98912.50;2100636;28;20078;-44
2022/10/22 04:59:23;;;;;;;;;;;;;;;21.26;63.06;98915.03;2104191;28;20063;-45
2022/10/22 05:00:24;;;;;;;6.47;2.80;;;;;;;21.31;62.93;98919.75;2099885;28;19920;-44
2022/10/22 05:01:27;;;;;;;;;;;;;;;21.24;62.85;98921.66;2097037;28;20509;-44
2022/10/22 05:02:27;;;;;;;3.80;2.92;;;;;;;21.29;62.78;98919.97;2096411;28;19968;-47
2022/10/22 05:03:29;;;;;;;7.20;2.75;;;;;;;21.33;62.80;98917.69;2091842;28;20048;-45